Time;durP1;ratioP1;P1;durP2;ratioP2;P2;SDS_P1;SDS_P2;PMS_P1;PMS_P2;Temp;Humidity;BMP_temperature;BMP_pressure;BME280_temperature;BME280_humidity;BME280_pressure;Samples;Min_cycle;Max_cycle;Signal;HPM_P1;HPM_P2
2022/11/06 00:00:24;;;;;;;2.20;1.13;;;;;;;6.36;100.00;100645.41;5051329;28;20447;-57
2022/11/06 00:02:51;;;;;;;9.43;1.23;;;;;;;6.24;100.00;100639.31;5051583;28;20481;-57
2022/11/06 00:08:03;;;;;;;0.80;0.73;;;;;;;6.13;100.00;100645.53;5040115;28;20500;-57
2022/11/06 00:10:30;;;;;;;2.67;2.47;;;;;;;5.96;100.00;100636.81;5051624;28;20552;-57
2022/11/06 00:12:58;;;;;;;1.37;1.27;;;;;;;6.00;100.00;100642.06;5051365;28;20828;-57
2022/11/06 00:15:24;;;;;;;1.83;0.73;;;;;;;5.98;100.00;100638.56;5037802;28;20471;-57
2022/11/06 00:17:51;;;;;;;1.10;1.00;;;;;;;5.94;100.00;100629.78;5050883;28;20489;-57
2022/11/06 00:20:17;;;;;;;1.20;1.07;;;;;;;5.92;100.00;100631.56;5038290;28;20440;-57
2022/11/06 00:22:44;;;;;;;1.83;1.70;;;;;;;5.96;100.00;100629.78;5050999;28;20854;-57
2022/11/06 00:25:11;;;;;;;0.40;0.30;;;;;;;5.81;100.00;100625.41;5043803;28;20505;-59
2022/11/06 00:27:39;;;;;;;1.17;0.77;;;;;;;5.76;100.00;100624.56;5051142;28;20470;-57
2022/11/06 00:30:07;;;;;;;2.00;1.90;;;;;;;5.78;100.00;100616.63;5050873;28;21330;-57
2022/11/06 00:32:34;;;;;;;2.87;2.43;;;;;;;5.62;100.00;100621.97;5030557;28;20887;-57
2022/11/06 00:35:00;;;;;;;1.27;1.17;;;;;;;5.60;100.00;100604.38;5045436;28;20459;-57
2022/11/06 00:37:27;;;;;;;0.97;0.90;;;;;;;5.68;100.00;100593.81;5039820;28;20545;-57
2022/11/06 00:39:53;;;;;;;1.67;1.57;;;;;;;5.57;100.00;100589.44;5048821;28;20455;-57
2022/11/06 00:42:19;;;;;;;2.10;1.10;;;;;;;5.46;100.00;100582.44;5050994;28;20450;-57
2022/11/06 00:44:46;;;;;;;1.33;1.27;;;;;;;5.39;100.00;100583.34;5045644;28;20897;-57
2022/11/06 00:47:12;;;;;;;0.83;0.60;;;;;;;5.41;100.00;100585.09;5042178;28;20474;-57
2022/11/06 00:49:39;;;;;;;0.87;0.87;;;;;;;5.27;100.00;100585.13;5051033;28;20501;-57
2022/11/06 00:52:05;;;;;;;2.03;1.83;;;;;;;5.24;100.00;100579.00;5050697;28;20866;-57
2022/11/06 00:54:32;;;;;;;0.93;0.77;;;;;;;5.15;100.00;100584.28;5045327;28;20452;-57
2022/11/06 00:56:58;;;;;;;2.40;0.77;;;;;;;5.20;100.00;100588.66;5030766;28;20824;-57
2022/11/06 00:59:24;;;;;;;1.90;1.13;;;;;;;5.30;100.00;100593.03;5048811;28;20504;-57
2022/11/06 01:01:51;;;;;;;1.57;1.33;;;;;;;5.19;100.00;100588.66;5050592;28;20450;-57
2022/11/06 01:04:22;;;;;;;0.97;0.97;;;;;;;4.99;100.00;100593.97;5044907;28;20539;-57
2022/11/06 01:06:52;;;;;;;0.67;0.67;;;;;;;5.15;100.00;100592.19;5043285;28;21011;-57
2022/11/06 01:09:21;;;;;;;0.60;0.60;;;;;;;5.02;100.00;100600.09;5050485;28;20517;-57
2022/11/06 01:11:50;;;;;;;26.47;1.03;;;;;;;5.09;100.00;100600.13;5019493;28;20459;-57
2022/11/06 01:14:38;;;;;;;0.53;0.53;;;;;;;5.19;100.00;100599.19;5039180;28;20487;-57
2022/11/06 01:17:05;;;;;;;3.07;1.27;;;;;;;4.98;100.00;100610.66;5036712;28;20752;-57
2022/11/06 01:19:31;;;;;;;0.40;0.30;;;;;;;4.96;100.00;100604.53;5050461;28;20446;-57
2022/11/06 01:21:58;;;;;;;1.10;1.10;;;;;;;4.97;100.00;100601.00;5050384;28;20533;-57
2022/11/06 01:24:26;;;;;;;0.83;0.83;;;;;;;5.00;100.00;100582.56;5049692;28;20461;-57
2022/11/06 01:26:53;;;;;;;2.63;1.30;;;;;;;4.86;100.00;100594.88;5047281;28;20478;-57
2022/11/06 01:29:40;;;;;;;0.70;0.70;;;;;;;4.92;100.00;100595.72;5049894;28;20490;-57
2022/11/06 01:32:06;;;;;;;1.10;1.10;;;;;;;4.70;100.00;100588.72;5047562;28;20454;-57
2022/11/06 01:34:33;;;;;;;1.73;1.63;;;;;;;4.84;100.00;100589.59;5049361;28;20508;-57
2022/11/06 01:36:59;;;;;;;2.40;2.30;;;;;;;4.78;100.00;100578.16;5037428;28;20475;-57
2022/11/06 01:39:26;;;;;;;0.70;0.70;;;;;;;4.82;100.00;100572.94;5050082;28;20450;-56
2022/11/06 01:41:53;;;;;;;1.50;1.40;;;;;;;4.83;100.00;100573.81;5049793;28;20940;-56
2022/11/06 01:44:34;;;;;;;1.67;0.87;;;;;;;4.89;100.00;100576.41;5048099;28;20459;-57
2022/11/06 01:47:03;;;;;;;1.03;1.03;;;;;;;4.87;100.00;100573.78;5039670;28;20474;-57
2022/11/06 01:49:35;;;;;;;1.53;1.33;;;;;;;4.79;100.00;100570.28;5049721;28;20502;-57
2022/11/06 01:52:07;;;;;;;5.03;2.70;;;;;;;4.82;100.00;100566.78;5049827;28;20816;-57
2022/11/06 01:54:36;;;;;;;0.63;0.57;;;;;;;4.90;100.00;100572.91;5044208;28;20459;-57
2022/11/06 01:57:03;;;;;;;0.80;0.80;;;;;;;4.85;100.00;100577.31;5042353;28;20475;-57
2022/11/06 01:59:33;;;;;;;0.40;0.30;;;;;;;5.01;100.00;100563.22;5049244;28;20459;-57
2022/11/06 02:01:59;;;;;;;0.87;0.50;;;;;;;4.96;100.00;100563.25;5036634;28;20452;-57
2022/11/06 02:04:31;;;;;;;1.00;0.83;;;;;;;5.15;100.00;100564.09;5038828;28;20470;-57
2022/11/06 02:06:59;;;;;;;0.97;0.90;;;;;;;5.01;100.00;100569.38;5049205;28;20525;-57
2022/11/06 02:09:28;;;;;;;0.70;0.70;;;;;;;4.97;100.00;100562.38;5049481;28;20500;-57
2022/11/06 02:12:05;;;;;;;0.30;0.30;;;;;;;4.79;100.00;100565.00;5049659;28;20455;-56
2022/11/06 02:14:31;;;;;;;0.60;0.40;;;;;;;4.80;100.00;100551.00;5039826;28;20451;-57
2022/11/06 02:17:11;;;;;;;2.80;0.73;;;;;;;4.82;100.00;100556.25;5045576;28;20485;-57
2022/11/06 02:19:55;;;;;;;0.90;0.73;;;;;;;4.78;100.00;100557.97;5049629;28;20796;-57
2022/11/06 02:22:51;;;;;;;1.50;1.40;;;;;;;4.83;100.00;100553.59;5048752;28;20464;-57
2022/11/06 02:25:24;;;;;;;0.53;0.50;;;;;;;4.78;100.00;100557.97;5048668;28;21084;-57
2022/11/06 02:28:01;;;;;;;1.97;1.87;;;;;;;4.81;100.00;100550.09;5049037;28;20880;-57
2022/11/06 02:30:33;;;;;;;0.40;0.40;;;;;;;4.69;100.00;100548.34;5049465;28;20490;-57
2022/11/06 02:33:05;;;;;;;1.03;1.03;;;;;;;4.56;100.00;100551.00;5046902;28;20455;-57
2022/11/06 02:35:38;;;;;;;2.53;2.43;;;;;;;4.60;100.00;100544.84;5023115;28;20529;-57
2022/11/06 02:38:12;;;;;;;1.47;1.33;;;;;;;4.55;100.00;100541.34;5045544;28;20450;-57
2022/11/06 02:40:43;;;;;;;0.83;0.60;;;;;;;4.68;100.00;100543.09;5049476;28;20490;-57
2022/11/06 02:43:13;;;;;;;0.47;0.30;;;;;;;4.58;100.00;100541.34;5031217;28;21033;-57
2022/11/06 02:46:05;;;;;;;0.80;0.80;;;;;;;4.56;100.00;100535.19;5036582;28;20460;-57
2022/11/06 02:48:40;;;;;;;2.00;1.03;;;;;;;4.58;100.00;100538.69;5029263;28;20455;-57
2022/11/06 02:51:11;;;;;;;3.70;1.07;;;;;;;4.62;100.00;100548.34;5047241;28;20559;-57
2022/11/06 02:53:41;;;;;;;1.83;1.73;;;;;;;4.43;100.00;100545.72;5048866;28;20513;-57
2022/11/06 02:56:13;;;;;;;1.03;0.93;;;;;;;4.53;100.00;100546.63;5043160;28;20476;-57
2022/11/06 02:58:45;;;;;;;0.77;0.77;;;;;;;4.47;100.00;100541.31;5044332;28;20473;-57
2022/11/06 03:01:23;;;;;;;0.50;0.40;;;;;;;4.53;100.00;100538.72;5040915;28;20492;-57
2022/11/06 03:03:55;;;;;;;1.53;0.73;;;;;;;4.53;100.00;100530.81;5051010;28;20461;-57
2022/11/06 03:06:32;;;;;;;0.60;0.57;;;;;;;4.31;100.00;100526.41;5042732;28;20525;-57
2022/11/06 03:09:05;;;;;;;0.73;0.73;;;;;;;4.52;100.00;100528.16;5035234;28;20450;-57
2022/11/06 03:11:37;;;;;;;1.60;1.50;;;;;;;4.59;100.00;100524.66;5052848;28;20488;-58
2022/11/06 03:14:23;;;;;;;1.10;1.00;;;;;;;4.52;100.00;100530.78;5052874;28;20454;-57
2022/11/06 03:16:57;;;;;;;1.53;1.43;;;;;;;4.60;100.00;100529.91;5053524;28;20526;-57
2022/11/06 03:19:33;;;;;;;1.17;0.50;;;;;;;4.56;100.00;100532.56;5035040;28;20461;-57
2022/11/06 03:22:11;;;;;;;0.77;0.73;;;;;;;4.49;100.00;100534.31;5039367;28;20496;-57
2022/11/06 03:24:44;;;;;;;0.40;0.30;;;;;;;4.39;100.00;100532.56;5044126;28;20458;-57
2022/11/06 03:27:22;;;;;;;0.50;0.40;;;;;;;4.34;100.00;100524.66;5046720;28;20467;-56
2022/11/06 03:29:58;;;;;;;0.83;0.57;;;;;;;4.41;100.00;100522.91;5048062;28;20450;-57
2022/11/06 03:32:31;;;;;;;4.20;0.40;;;;;;;4.46;100.00;100518.53;5050779;28;20512;-57
2022/11/06 03:35:17;;;;;;;0.60;0.60;;;;;;;4.52;100.00;100515.88;5049951;28;20471;-57
2022/11/06 03:37:53;;;;;;;0.90;0.90;;;;;;;4.45;100.00;100508.88;5039644;28;20482;-57
2022/11/06 03:40:23;;;;;;;1.17;0.63;;;;;;;4.56;100.00;100504.50;5040214;28;20443;-57
2022/11/06 03:42:54;;;;;;;5.63;0.70;;;;;;;4.52;100.00;100509.72;5052336;28;20580;-57
2022/11/06 03:45:23;;;;;;;1.27;0.50;;;;;;;4.37;100.00;100511.50;5042978;28;20965;-57
2022/11/06 03:48:01;;;;;;;0.87;0.57;;;;;;;4.40;100.00;100510.66;5048221;28;20475;-57
2022/11/06 03:50:33;;;;;;;1.03;0.87;;;;;;;4.30;100.00;100503.63;5050176;28;20506;-57
2022/11/06 03:53:20;;;;;;;0.30;0.30;;;;;;;4.25;100.00;100487.84;5038608;28;20450;-57
2022/11/06 03:55:54;;;;;;;0.37;0.30;;;;;;;4.32;100.00;100486.94;5046139;28;20474;-57
2022/11/06 03:58:27;;;;;;;1.00;0.30;;;;;;;4.30;100.00;100495.72;5052253;28;20454;-57
2022/11/06 04:00:57;;;;;;;0.43;0.33;;;;;;;4.34;100.00;100486.94;5051992;28;20466;-57
2022/11/06 04:03:50;;;;;;;0.90;0.30;;;;;;;4.12;100.00;100486.06;5051744;28;20451;-57
2022/11/06 04:06:28;;;;;;;2.47;1.23;;;;;;;3.96;100.00;100487.78;5051696;28;20867;-57
2022/11/06 04:14:35;;;;;;;0.70;0.67;;;;;;;4.04;100.00;100499.22;5043298;28;20462;-57
2022/11/06 04:17:05;;;;;;;0.50;0.40;;;;;;;4.01;100.00;100514.13;5051612;28;20548;-57
2022/11/06 04:19:32;;;;;;;0.30;0.20;;;;;;;4.17;100.00;100521.16;5052110;28;20442;-57
2022/11/06 04:22:13;;;;;;;0.50;0.50;;;;;;;4.27;100.00;100522.91;5051645;28;20447;-57
2022/11/06 04:28:15;;;;;;;6.87;2.23;;;;;;;4.35;100.00;100533.44;5051707;28;20442;-57
2022/11/06 04:30:53;;;;;;;4.63;2.20;;;;;;;4.43;100.00;100523.78;5039752;28;20502;-57
2022/11/06 04:33:55;;;;;;;1.20;1.10;;;;;;;3.98;100.00;100520.25;5046089;28;20459;-57
2022/11/06 04:36:48;;;;;;;2.13;1.93;;;;;;;3.99;100.00;100522.00;5037230;28;20531;-57
2022/11/06 04:39:23;;;;;;;0.90;0.90;;;;;;;4.22;100.00;100523.75;5051530;28;20528;-57
2022/11/06 04:42:02;;;;;;;1.00;0.97;;;;;;;4.09;100.00;100528.13;5051183;28;20449;-57
2022/11/06 04:44:42;;;;;;;1.17;1.03;;;;;;;4.12;100.00;100533.44;5049740;28;20451;-57
2022/11/06 04:47:15;;;;;;;1.00;0.50;;;;;;;4.01;100.00;100535.16;5031103;28;20471;-57
2022/11/06 04:49:43;;;;;;;0.67;0.67;;;;;;;4.09;100.00;100546.53;5049168;28;20504;-57
2022/11/06 04:52:18;;;;;;;0.70;0.60;;;;;;;4.12;100.00;100529.03;5051211;28;20494;-57
2022/11/06 04:54:47;;;;;;;2.50;2.30;;;;;;;4.00;100.00;100518.50;5044641;28;20882;-57
2022/11/06 04:57:14;;;;;;;2.60;2.40;;;;;;;3.87;100.00;100524.59;5043748;28;20825;-57
2022/11/06 04:59:41;;;;;;;0.40;0.30;;;;;;;3.60;100.00;100514.88;5044042;28;20466;-57
2022/11/06 05:02:07;;;;;;;2.00;1.77;;;;;;;3.42;100.00;100518.31;5044059;28;20854;-57
2022/11/06 05:04:34;;;;;;;1.57;0.90;;;;;;;3.63;100.00;100506.13;5037747;28;20838;-57
2022/11/06 05:07:00;;;;;;;1.90;0.87;;;;;;;3.78;100.00;100514.94;5044353;28;20474;-57
2022/11/06 05:09:27;;;;;;;1.10;1.10;;;;;;;3.84;100.00;100512.34;5050580;28;20512;-57
2022/11/06 05:11:53;;;;;;;2.00;1.13;;;;;;;3.72;100.00;100508.78;5050583;28;20494;-56
2022/11/06 05:14:19;;;;;;;1.60;0.53;;;;;;;3.78;100.00;100504.41;5043286;28;20459;-57
2022/11/06 05:16:46;;;;;;;2.40;2.20;;;;;;;3.85;100.00;100506.19;5044244;28;20552;-57
2022/11/06 05:19:12;;;;;;;0.50;0.50;;;;;;;3.86;100.00;100496.56;5050663;28;20512;-57
2022/11/06 05:24:23;;;;;;;1.33;1.17;;;;;;;3.97;100.00;100497.44;5035435;28;20482;-57
2022/11/06 05:26:50;;;;;;;1.90;1.30;;;;;;;4.00;100.00;100493.94;5046533;28;20521;-57
2022/11/06 05:29:24;;;;;;;0.80;0.50;;;;;;;4.11;100.00;100506.25;5042008;28;20452;-57
2022/11/06 05:31:50;;;;;;;0.40;0.30;;;;;;;3.85;100.00;100500.94;5047605;28;20524;-57
2022/11/06 05:34:17;;;;;;;0.93;0.90;;;;;;;3.90;100.00;100505.31;5050270;28;20450;-57
2022/11/06 05:36:43;;;;;;;3.83;1.60;;;;;;;3.58;100.00;100497.38;5034411;28;21000;-57
2022/11/06 05:39:10;;;;;;;0.40;0.40;;;;;;;3.63;100.00;100480.72;5041223;28;20454;-57
2022/11/06 05:41:36;;;;;;;7.30;0.60;;;;;;;3.78;100.00;100469.38;5050211;28;20500;-57
2022/11/06 05:44:02;;;;;;;1.33;0.47;;;;;;;3.62;100.00;100465.84;5050270;28;20844;-57
2022/11/06 05:46:30;;;;;;;2.40;2.30;;;;;;;3.62;100.00;100462.31;5031865;28;20479;-57
2022/11/06 05:49:16;;;;;;;1.43;1.40;;;;;;;3.58;100.00;100450.94;5043191;28;20451;-57
2022/11/06 05:51:42;;;;;;;0.40;0.30;;;;;;;3.63;100.00;100453.56;5037403;28;20498;-57
2022/11/06 05:54:08;;;;;;;0.47;0.40;;;;;;;3.63;100.00;100459.69;5049497;28;20454;-57
2022/11/06 05:56:35;;;;;;;1.30;0.60;;;;;;;3.66;100.00;100464.94;5049909;28;20471;-57
2022/11/06 05:59:01;;;;;;;6.23;0.73;;;;;;;3.65;100.00;100473.72;5049956;28;20446;-57
2022/11/06 06:01:28;;;;;;;0.40;0.30;;;;;;;3.55;100.00;100469.31;5049951;28;20507;-57
2022/11/06 06:03:55;;;;;;;8.80;1.53;;;;;;;3.36;100.00;100454.38;5048581;28;21033;-57
2022/11/06 06:06:21;;;;;;;1.00;1.00;;;;;;;3.64;100.00;100435.16;5037160;28;20884;-57
2022/11/06 06:08:48;;;;;;;0.80;0.80;;;;;;;3.58;100.00;100429.03;5047699;28;20455;-57
2022/11/06 06:11:14;;;;;;;0.60;0.60;;;;;;;3.58;100.00;100432.53;5047965;28;20548;-57
2022/11/06 06:13:40;;;;;;;1.10;0.80;;;;;;;3.65;100.00;100434.28;5049455;28;20524;-57
2022/11/06 06:16:07;;;;;;;1.20;1.17;;;;;;;3.52;100.00;100414.13;5047938;28;20494;-57
2022/11/06 06:18:33;;;;;;;1.13;0.57;;;;;;;3.60;100.00;100412.41;5049381;28;20501;-57
2022/11/06 06:21:00;;;;;;;1.13;0.93;;;;;;;3.45;100.00;100401.84;5039264;28;20443;-57
2022/11/06 06:23:26;;;;;;;1.20;1.13;;;;;;;3.46;100.00;100388.72;5048252;28;20913;-57
2022/11/06 06:25:53;;;;;;;2.00;1.40;;;;;;;3.53;100.00;100385.22;5044325;28;20827;-57
2022/11/06 06:28:19;;;;;;;0.43;0.43;;;;;;;3.48;100.00;100373.84;5031673;28;20461;-57
2022/11/06 06:30:46;;;;;;;0.57;0.40;;;;;;;3.53;100.00;100379.09;5022497;28;20487;-57
2022/11/06 06:33:12;;;;;;;1.03;1.03;;;;;;;3.56;100.00;100379.06;5048465;28;20508;-57
2022/11/06 06:35:38;;;;;;;1.80;1.60;;;;;;;3.49;100.00;100374.72;5049048;28;20466;-57
2022/11/06 06:38:05;;;;;;;1.77;1.67;;;;;;;3.47;100.00;100379.09;5049727;28;20511;-57
2022/11/06 06:40:31;;;;;;;8.30;1.37;;;;;;;3.48;100.00;100379.09;5048707;28;20458;-57
2022/11/06 06:42:58;;;;;;;8.07;1.30;;;;;;;3.52;100.00;100372.94;5036055;28;20458;-57
2022/11/06 06:45:25;;;;;;;1.10;0.93;;;;;;;3.51;100.00;100373.81;5044510;28;20455;-57
2022/11/06 06:47:52;;;;;;;2.83;1.43;;;;;;;3.44;100.00;100368.56;5046069;28;21019;-57
2022/11/06 06:50:18;;;;;;;0.83;0.80;;;;;;;3.37;100.00;100374.69;5048044;28;20908;-57
2022/11/06 06:52:44;;;;;;;2.20;2.10;;;;;;;3.53;100.00;100385.22;5048731;28;20486;-57
2022/11/06 06:55:11;;;;;;;0.30;0.30;;;;;;;3.46;100.00;100385.22;5038923;28;20506;-57
2022/11/06 06:57:37;;;;;;;8.90;0.77;;;;;;;3.58;100.00;100385.25;5035273;28;20505;-57
2022/11/06 07:00:04;;;;;;;0.90;0.53;;;;;;;3.65;100.00;100381.72;5049018;28;20897;-57
2022/11/06 07:02:31;;;;;;;0.77;0.40;;;;;;;3.70;100.00;100386.97;5048686;28;20795;-57
2022/11/06 07:04:57;;;;;;;0.80;0.80;;;;;;;3.73;100.00;100381.75;5038631;28;20458;-57
2022/11/06 07:07:23;;;;;;;0.50;0.30;;;;;;;3.73;100.00;100387.00;5030749;28;20479;-57
2022/11/06 07:09:51;;;;;;;1.60;1.50;;;;;;;3.78;100.00;100386.13;5038881;28;20454;-57
2022/11/06 07:12:17;;;;;;;1.80;1.70;;;;;;;3.90;100.00;100387.88;5045020;28;20491;-57
2022/11/06 07:14:44;;;;;;;1.27;0.87;;;;;;;3.99;100.00;100392.28;5048567;28;20976;-57
2022/11/06 07:17:10;;;;;;;4.10;0.87;;;;;;;4.10;100.00;100387.84;5046201;28;20895;-57
2022/11/06 07:19:36;;;;;;;2.63;2.53;;;;;;;4.16;100.00;100394.00;5043239;28;20475;-57
2022/11/06 07:22:03;;;;;;;1.57;1.47;;;;;;;4.20;100.00;100392.25;5047750;28;20453;-57
2022/11/06 07:24:29;;;;;;;5.00;1.50;;;;;;;4.22;100.00;100382.59;5048638;28;20517;-57
2022/11/06 07:26:55;;;;;;;1.70;0.77;;;;;;;4.26;100.00;100388.75;5047743;28;20905;-57
2022/11/06 07:29:22;;;;;;;2.10;0.87;;;;;;;4.33;100.00;100398.34;5049267;28;20451;-57
2022/11/06 07:31:48;;;;;;;1.73;1.63;;;;;;;4.39;100.00;100401.88;5046028;28;20485;-57
2022/11/06 07:34:15;;;;;;;0.50;0.50;;;;;;;4.74;100.00;100406.16;5048654;28;20467;-57
2022/11/06 07:36:41;;;;;;;0.70;0.70;;;;;;;4.96;100.00;100420.16;5048575;28;20552;-57
2022/11/06 07:39:07;;;;;;;0.50;0.50;;;;;;;4.88;100.00;100427.19;5048557;28;20454;-58
2022/11/06 07:41:34;;;;;;;2.50;1.97;;;;;;;4.94;100.00;100421.91;5048551;28;20455;-57
2022/11/06 07:44:00;;;;;;;6.10;1.83;;;;;;;4.99;100.00;100420.13;5049455;28;20909;-58
2022/11/06 07:46:27;;;;;;;3.20;2.30;;;;;;;5.06;100.00;100422.72;5051033;28;20934;-58
2022/11/06 07:48:53;;;;;;;1.53;1.03;;;;;;;5.10;100.00;100435.91;5052304;28;21026;-57
2022/11/06 07:51:20;;;;;;;1.30;1.20;;;;;;;5.05;100.00;100426.22;5052448;28;20490;-58
2022/11/06 07:53:46;;;;;;;2.40;2.20;;;;;;;5.16;100.00;100420.91;5045170;28;20474;-56
2022/11/06 07:56:13;;;;;;;1.90;1.30;;;;;;;5.29;100.00;100421.75;5052115;28;20765;-56
2022/11/06 07:58:39;;;;;;;3.73;2.00;;;;;;;5.32;100.00;100419.09;5051868;28;20459;-56
2022/11/06 08:01:13;;;;;;;0.97;0.97;;;;;;;5.37;100.00;100412.03;5051413;28;20447;-56
2022/11/06 08:03:44;;;;;;;1.17;0.70;;;;;;;5.08;100.00;100412.19;5051882;28;20486;-56
2022/11/06 08:06:10;;;;;;;0.70;0.67;;;;;;;5.12;100.00;100405.16;5047465;28;20527;-56
2022/11/06 08:08:37;;;;;;;1.37;1.27;;;;;;;5.34;100.00;100404.13;5021008;28;20456;-56
2022/11/06 08:11:05;;;;;;;1.20;1.13;;;;;;;5.33;100.00;100402.38;5051677;28;20488;-56
2022/11/06 08:13:33;;;;;;;1.80;1.23;;;;;;;5.47;100.00;100403.19;5050893;28;20451;-56
2022/11/06 08:16:11;;;;;;;1.63;1.53;;;;;;;5.67;100.00;100400.44;5047799;28;20842;-57
2022/11/06 08:18:38;;;;;;;0.80;0.80;;;;;;;5.64;100.00;100401.34;5047186;28;20450;-57
2022/11/06 08:21:05;;;;;;;1.50;1.40;;;;;;;5.73;100.00;100400.38;5041899;28;20953;-57
2022/11/06 08:23:33;;;;;;;0.63;0.63;;;;;;;5.83;100.00;100394.16;5047441;28;20986;-57
2022/11/06 08:26:01;;;;;;;0.93;0.77;;;;;;;5.94;100.00;100389.72;5050604;28;20966;-57
2022/11/06 08:28:28;;;;;;;1.10;0.73;;;;;;;5.94;100.00;100378.28;5045214;28;20463;-56
2022/11/06 08:30:54;;;;;;;1.03;0.93;;;;;;;6.02;100.00;100380.84;5043780;28;20520;-56
2022/11/06 08:33:22;;;;;;;2.03;1.93;;;;;;;6.03;100.00;100372.94;5049135;28;20451;-57
2022/11/06 08:35:48;;;;;;;2.17;2.07;;;;;;;6.00;100.00;100366.78;5047398;28;20474;-57
2022/11/06 08:38:15;;;;;;;0.60;0.60;;;;;;;5.97;100.00;100361.53;5037895;28;20462;-57
2022/11/06 08:40:42;;;;;;;0.93;0.80;;;;;;;5.79;100.00;100349.38;5040943;28;20460;-57
2022/11/06 08:43:09;;;;;;;0.50;0.40;;;;;;;5.80;100.00;100351.09;5035959;28;20870;-57
2022/11/06 08:45:39;;;;;;;1.57;1.47;;;;;;;5.87;100.00;100345.75;5046283;28;20778;-57
2022/11/06 08:48:06;;;;;;;0.60;0.60;;;;;;;6.01;100.00;100353.56;5050910;28;20458;-57
2022/11/06 08:50:35;;;;;;;1.23;0.97;;;;;;;5.80;100.00;100346.72;5049048;28;20454;-57
2022/11/06 08:53:03;;;;;;;0.97;0.97;;;;;;;5.88;100.00;100346.63;5050606;28;20486;-57
2022/11/06 08:55:30;;;;;;;1.37;1.27;;;;;;;5.76;100.00;100352.03;5049701;28;20451;-57
2022/11/06 08:57:56;;;;;;;0.83;0.83;;;;;;;5.99;100.00;100343.94;5033495;28;20468;-56
2022/11/06 09:00:23;;;;;;;0.80;0.80;;;;;;;6.19;100.00;100332.31;5050878;28;20465;-56
2022/11/06 09:02:49;;;;;;;0.90;0.90;;;;;;;6.29;100.00;100334.84;5041915;28;20447;-56
2022/11/06 09:05:16;;;;;;;1.10;1.10;;;;;;;6.40;100.00;100328.56;5050167;28;20447;-56
2022/11/06 09:07:42;;;;;;;3.87;2.00;;;;;;;6.29;100.00;100316.34;5050023;28;20475;-57
2022/11/06 09:10:09;;;;;;;1.17;1.07;;;;;;;6.27;100.00;100319.03;5050095;28;20463;-56
2022/11/06 09:12:35;;;;;;;1.27;1.13;;;;;;;6.31;100.00;100326.03;5050328;28;20491;-56
2022/11/06 09:15:01;;;;;;;1.23;1.17;;;;;;;6.37;100.00;100322.44;5047821;28;20859;-56
2022/11/06 09:17:28;;;;;;;0.97;0.97;;;;;;;6.48;100.00;100320.56;5037145;28;20493;-54
2022/11/06 09:19:54;;;;;;;1.83;1.20;;;;;;;6.62;100.00;100312.47;5049397;28;20462;-55
2022/11/06 09:22:21;;;;;;;0.93;0.93;;;;;;;6.46;100.00;100302.09;5040178;28;20924;-55
2022/11/06 09:24:48;;;;;;;2.10;2.00;;;;;;;6.47;100.00;100302.97;5049083;28;20516;-55
2022/11/06 09:27:29;;;;;;;29.67;2.50;;;;;;;6.52;100.00;100304.66;5043110;28;20552;-55
2022/11/06 09:29:55;;;;;;;4.67;1.77;;;;;;;6.52;100.00;100301.16;5050122;28;20455;-55
2022/11/06 09:32:23;;;;;;;1.27;1.10;;;;;;;6.41;100.00;100292.47;5047586;28;20487;-55
2022/11/06 09:34:50;;;;;;;1.47;1.33;;;;;;;6.58;100.00;100285.25;5050478;28;20454;-55
2022/11/06 09:37:16;;;;;;;1.47;1.37;;;;;;;6.36;100.00;100279.34;5050492;28;20475;-55
2022/11/06 09:39:43;;;;;;;0.60;0.60;;;;;;;6.26;100.00;100290.88;5050142;28;20446;-54
2022/11/06 09:42:32;;;;;;;1.47;1.40;;;;;;;6.21;100.00;100290.94;5050310;28;20504;-55
2022/11/06 09:45:13;;;;;;;1.97;1.87;;;;;;;6.25;100.00;100286.50;5050498;28;20478;-55
2022/11/06 09:47:46;;;;;;;0.93;0.90;;;;;;;6.55;100.00;100274.69;5050120;28;20478;-55
2022/11/06 09:50:18;;;;;;;1.63;1.50;;;;;;;6.49;100.00;100269.50;5050304;28;20496;-54
2022/11/06 09:52:59;;;;;;;1.50;1.40;;;;;;;6.46;100.00;100251.94;5046580;28;20491;-55
2022/11/06 09:55:41;;;;;;;1.70;1.60;;;;;;;6.62;100.00;100249.97;5042826;28;20898;-54
2022/11/06 09:58:17;;;;;;;2.27;1.67;;;;;;;6.41;100.00;100251.09;5032546;28;20446;-54
2022/11/06 10:00:43;;;;;;;1.43;1.33;;;;;;;6.64;100.00;100242.91;5050082;28;20472;-54
2022/11/06 10:03:38;;;;;;;2.60;2.50;;;;;;;6.76;100.00;100250.66;5049827;28;20538;-55
2022/11/06 10:06:05;;;;;;;6.23;2.73;;;;;;;6.92;100.00;100246.03;5049289;28;20546;-54
2022/11/06 10:08:32;;;;;;;1.37;1.27;;;;;;;7.24;100.00;100244.66;5049421;28;20940;-55
2022/11/06 10:11:14;;;;;;;4.00;2.00;;;;;;;7.37;100.00;100249.72;5049197;28;20455;-55
2022/11/06 10:13:53;;;;;;;2.20;1.70;;;;;;;7.49;100.00;100258.34;5031462;28;20548;-55
2022/11/06 10:16:35;;;;;;;3.20;2.43;;;;;;;7.63;100.00;100259.00;5049082;28;20536;-55
2022/11/06 10:19:18;;;;;;;2.80;2.67;;;;;;;7.98;100.00;100258.38;5048819;28;20874;-55
2022/11/06 10:21:48;;;;;;;5.67;4.30;;;;;;;7.95;100.00;100253.16;5049184;28;20922;-53
2022/11/06 10:24:20;;;;;;;3.27;2.97;;;;;;;8.09;100.00;100243.19;5048842;28;21029;-54
2022/11/06 10:26:56;;;;;;;1.60;1.50;;;;;;;8.25;100.00;100235.81;5048484;28;20498;-55
2022/11/06 10:29:43;;;;;;;8.23;4.13;;;;;;;7.96;100.00;100223.13;5049299;28;20511;-54
2022/11/06 10:32:30;;;;;;;2.43;2.30;;;;;;;8.03;100.00;100225.63;5038775;28;20502;-55
2022/11/06 10:35:07;;;;;;;2.40;1.70;;;;;;;8.32;100.00;100219.75;5048603;28;20883;-55
2022/11/06 10:37:56;;;;;;;2.00;1.83;;;;;;;8.28;100.00;100217.19;5048484;28;21046;-55
2022/11/06 10:40:27;;;;;;;1.93;1.80;;;;;;;8.31;100.00;100207.41;5048841;28;20504;-55
2022/11/06 10:43:05;;;;;;;2.37;2.27;;;;;;;8.36;100.00;100211.75;5048712;28;20963;-54
2022/11/06 10:45:33;;;;;;;7.50;2.13;;;;;;;8.40;100.00;100210.81;5048621;28;20455;-55
2022/11/06 10:48:21;;;;;;;2.67;2.43;;;;;;;8.23;100.00;100197.91;5048817;28;20512;-55
2022/11/06 10:51:31;;;;;;;2.63;2.43;;;;;;;8.61;100.00;100178.53;5048515;28;20874;-55
2022/11/06 10:54:16;;;;;;;2.10;2.00;;;;;;;8.83;100.00;100182.47;5035146;28;20443;-55
2022/11/06 10:56:54;;;;;;;4.70;1.97;;;;;;;9.13;100.00;100172.91;5030946;28;20979;-55
2022/11/06 10:59:21;;;;;;;1.57;1.47;;;;;;;9.22;100.00;100173.59;5048835;28;20450;-54
2022/11/06 11:01:48;;;;;;;1.60;1.50;;;;;;;8.76;100.00;100175.53;5048650;28;20451;-55
2022/11/06 11:04:15;;;;;;;3.20;2.93;;;;;;;8.69;100.00;100173.97;5048424;28;20457;-55
2022/11/06 11:06:41;;;;;;;1.60;1.50;;;;;;;8.79;100.00;100170.19;5048563;28;20478;-55
2022/11/06 11:09:27;;;;;;;2.13;2.03;;;;;;;8.85;100.00;100156.78;5048711;28;20463;-54
2022/11/06 11:11:53;;;;;;;5.83;1.97;;;;;;;9.07;100.00;100148.34;5048361;28;20451;-55
2022/11/06 11:14:25;;;;;;;3.00;2.60;;;;;;;8.96;100.00;100137.13;5047192;28;20484;-55
2022/11/06 11:16:53;;;;;;;2.10;1.93;;;;;;;9.14;100.00;100145.47;5042665;28;20540;-55
2022/11/06 11:19:31;;;;;;;1.80;1.70;;;;;;;9.13;100.00;100122.53;5050376;28;20463;-56
2022/11/06 11:22:02;;;;;;;5.03;2.83;;;;;;;9.16;100.00;100114.47;5052379;28;20480;-56
2022/11/06 11:24:29;;;;;;;1.23;1.13;;;;;;;8.78;100.00;100109.28;5052428;28;20925;-55
2022/11/06 11:27:00;;;;;;;7.83;3.07;;;;;;;8.80;100.00;100112.75;5048005;28;20486;-55
2022/11/06 11:29:33;;;;;;;2.30;1.57;;;;;;;8.70;100.00;100119.19;5044519;28;20525;-55
2022/11/06 11:32:04;;;;;;;2.33;2.10;;;;;;;9.31;100.00;100107.91;5051963;28;20934;-55
2022/11/06 11:34:34;;;;;;;3.30;3.10;;;;;;;9.62;100.00;100102.66;5052612;28;20454;-56
2022/11/06 11:37:03;;;;;;;1.47;1.37;;;;;;;9.29;100.00;100106.22;5052416;28;20596;-56
2022/11/06 11:39:33;;;;;;;19.93;2.53;;;;;;;9.50;100.00;100093.25;5050150;28;21076;-56
2022/11/06 11:42:22;;;;;;;6.77;1.80;;;;;;;9.39;100.00;100084.72;5039603;28;20454;-56
2022/11/06 11:45:08;;;;;;;4.70;3.13;;;;;;;9.29;100.00;100069.06;5051856;28;20535;-56
2022/11/06 11:47:41;;;;;;;2.80;2.57;;;;;;;9.90;100.00;100056.75;5038155;28;21049;-55
2022/11/06 11:50:18;;;;;;;8.63;3.20;;;;;;;9.76;100.00;100052.72;5051319;28;20459;-56
2022/11/06 11:52:46;;;;;;;1.80;1.67;;;;;;;9.40;100.00;100051.09;5030164;28;20486;-55
2022/11/06 11:55:20;;;;;;;5.90;2.87;;;;;;;9.74;100.00;100043.06;5047622;28;20477;-57